Terminal Aerodrome Forecast
Issued by NWS

Home | Current Version | Previous Version | Text Only | Print | Product List | Glossary Off
Versions: 1 2 3 4 5 6 7 8 9 10 11 12 13 14 15 16 17

415
FTUS43 KTOP 171126
TAFFOE
TAF
KFOE 171126Z 1712/1812 16014KT 6SM -DZ SCT006 BKN013
      TEMPO 1712/1715 4SM -DZ BKN006
     FM171600 18013G25KT P6SM OVC015
     FM171900 19014G27KT P6SM FEW015 SCT250
     FM172300 20006KT P6SM BKN200
     FM180400 32006KT P6SM SCT200=

USA.gov is the U.S. government's official web portal to all federal, state and local government web resources and services.